Time;durP1;ratioP1;P1;durP2;ratioP2;P2;SDS_P1;SDS_P2;PMS_P1;PMS_P2;Temp;Humidity;BMP_temperature;BMP_pressure;BME280_temperature;BME280_humidity;BME280_pressure;Samples;Min_cycle;Max_cycle;Signal;HPM_P1;HPM_P2
2023/06/16 00:01:38;;;;;;;;;16.00;16.00;;;;;21.70;45.80;99134.00;5090742;27;45356;-64
2023/06/16 00:04:04;;;;;;;;;14.75;14.75;;;;;21.70;45.88;99135.81;5093794;27;45786;-64
2023/06/16 00:06:30;;;;;;;;;18.25;16.25;;;;;21.67;46.50;99133.41;5096272;27;45606;-64
2023/06/16 00:09:00;;;;;;;;;19.75;16.25;;;;;21.61;45.61;99140.16;5094363;27;45508;-64
2023/06/16 00:11:29;;;;;;;;;19.75;17.50;;;;;21.54;45.99;99136.28;5080647;27;45456;-64
2023/06/16 00:13:56;;;;;;;;;20.00;19.00;;;;;21.49;46.72;99142.03;5094686;27;45499;-63
2023/06/16 00:16:23;;;;;;;;;16.25;14.50;;;;;21.45;47.12;99137.91;5093220;27;45585;-64
2023/06/16 00:18:51;;;;;;;;;17.50;16.75;;;;;21.40;46.86;99132.09;5091503;27;45495;-64
2023/06/16 00:21:25;;;;;;;;;22.00;18.25;;;;;21.34;47.45;99124.56;5091953;27;45491;-64
2023/06/16 00:23:51;;;;;;;;;20.25;20.00;;;;;21.29;47.83;99126.75;5083566;27;45408;-64
2023/06/16 00:26:17;;;;;;;;;20.50;20.50;;;;;21.26;48.01;99124.38;5093421;27;46874;-64
2023/06/16 00:28:43;;;;;;;;;20.75;18.50;;;;;21.22;48.05;99129.13;5091300;27;45492;-64
2023/06/16 00:31:08;;;;;;;;;23.00;22.25;;;;;21.21;48.38;99129.25;5094216;27;45343;-64
2023/06/16 00:33:33;;;;;;;;;22.00;19.25;;;;;21.20;48.32;99123.03;5093714;27;45577;-64
2023/06/16 00:35:59;;;;;;;;;20.75;20.75;;;;;21.19;48.37;99132.06;5075726;27;45405;-64
2023/06/16 00:38:25;;;;;;;;;19.00;18.25;;;;;21.17;48.32;99136.66;5093046;27;45426;-64
2023/06/16 00:40:50;;;;;;;;;18.50;18.25;;;;;21.10;48.45;99132.81;5082346;27;45559;-64
2023/06/16 00:43:16;;;;;;;;;16.50;16.00;;;;;20.97;48.27;99140.13;5100379;27;45660;-64
2023/06/16 00:45:41;;;;;;;;;19.00;19.00;;;;;20.92;48.79;99136.16;5080772;27;46312;-64
2023/06/16 00:48:06;;;;;;;;;20.50;19.50;;;;;20.84;48.94;99140.31;5093829;27;45389;-64
2023/06/16 00:50:32;;;;;;;;;23.50;18.75;;;;;20.74;49.25;99141.19;5084325;27;45564;-64
2023/06/16 00:52:58;;;;;;;;;20.00;19.50;;;;;20.66;49.07;99136.44;5094482;27;45531;-64
2023/06/16 00:55:24;;;;;;;;;18.00;17.25;;;;;20.64;49.32;99134.84;5086744;27;46072;-64
2023/06/16 00:57:51;;;;;;;;;21.00;19.50;;;;;20.62;49.74;99136.81;5073466;27;45546;-64
2023/06/16 01:00:17;;;;;;;;;20.00;19.25;;;;;20.58;50.01;99146.09;5082646;27;45391;-64
2023/06/16 01:02:44;;;;;;;;;18.75;17.25;;;;;20.53;49.97;99149.13;5095706;27;45541;-64
2023/06/16 01:05:12;;;;;;;;;18.25;18.25;;;;;20.48;50.13;99137.91;5090593;27;45589;-64
2023/06/16 01:08:35;;;;;;;;;18.00;17.25;;;;;20.43;50.46;99142.81;5096466;27;45519;-64
2023/06/16 01:11:30;;;;;;;;;20.50;18.75;;;;;20.40;50.46;99137.69;5020674;28;45586;-64
2023/06/16 01:14:35;;;;;;;;;21.00;21.00;;;;;20.42;49.72;99133.06;5016257;28;45597;-64
2023/06/16 01:17:05;;;;;;;;;20.25;19.50;;;;;20.43;49.96;99138.31;5055213;27;48330;-64
2023/06/16 01:19:39;;;;;;;;;21.75;18.25;;;;;20.45;49.99;99133.66;5087602;27;45453;-64
2023/06/16 01:22:30;;;;;;;;;18.00;18.00;;;;;20.45;50.26;99136.34;5096808;27;45525;-64
2023/06/16 01:24:58;;;;;;;;;19.00;19.00;;;;;20.44;50.46;99139.16;5085966;27;45496;-64
2023/06/16 01:27:24;;;;;;;;;22.75;18.00;;;;;20.44;51.06;99139.16;5094694;27;45761;-63
2023/06/16 01:29:51;;;;;;;;;20.50;18.75;;;;;20.41;51.01;99142.94;5073857;27;45645;-64
2023/06/16 01:32:20;;;;;;;;;19.50;19.25;;;;;20.36;51.09;99136.19;5095892;27;45317;-64
2023/06/16 01:34:48;;;;;;;;;22.25;20.50;;;;;20.33;51.18;99139.97;5088479;27;45438;-63
2023/06/16 01:37:15;;;;;;;;;24.25;19.50;;;;;20.31;50.71;99139.25;5074227;28;48378;-64
2023/06/16 01:39:43;;;;;;;;;22.00;20.50;;;;;20.28;50.86;99144.84;5082432;27;45472;-64
2023/06/16 01:42:09;;;;;;;;;19.25;18.25;;;;;20.23;51.59;99144.38;5074011;28;45456;-64
2023/06/16 01:44:36;;;;;;;;;23.50;21.00;;;;;20.19;51.46;99143.75;5079910;27;45605;-65
2023/06/16 01:47:01;;;;;;;;;20.25;19.25;;;;;20.13;51.69;99146.06;5086838;27;46291;-64
2023/06/16 01:49:28;;;;;;;;;18.00;16.75;;;;;20.02;51.97;99154.09;5088441;27;45576;-64
2023/06/16 01:51:53;;;;;;;;;21.00;19.75;;;;;19.95;51.76;99151.03;5093425;27;45581;-64
2023/06/16 01:54:18;;;;;;;;;22.50;21.75;;;;;19.90;51.65;99149.69;5087824;27;45386;-64
2023/06/16 01:56:44;;;;;;;;;26.00;23.75;;;;;19.84;52.30;99145.66;5095809;27;46229;-64
2023/06/16 01:59:09;;;;;;;;;17.00;16.25;;;;;19.78;52.37;99155.00;5089479;27;45535;-63
2023/06/16 02:01:46;;;;;;;;;21.50;21.00;;;;;19.75;52.17;99157.94;5070112;27;45775;-64
2023/06/16 02:04:16;;;;;;;;;19.50;18.75;;;;;19.74;52.07;99160.72;5076295;27;45468;-64
2023/06/16 02:07:11;;;;;;;;;23.75;21.25;;;;;19.66;52.31;99169.34;5083631;27;45741;-64
2023/06/16 02:09:38;;;;;;;;;20.25;19.75;;;;;19.60;53.48;99171.66;5086253;27;45589;-64
2023/06/16 02:12:09;;;;;;;;;20.00;20.00;;;;;19.55;52.82;99169.31;5092987;27;45484;-64
2023/06/16 02:14:35;;;;;;;;;22.00;20.25;;;;;19.52;52.79;99166.88;5089459;27;45287;-64
2023/06/16 02:17:12;;;;;;;;;18.50;18.50;;;;;19.51;52.58;99167.84;5091699;27;47254;-64
2023/06/16 02:19:38;;;;;;;;;20.25;18.50;;;;;19.51;52.69;99166.00;5085595;27;45507;-64
2023/06/16 02:22:04;;;;;;;;;18.75;18.50;;;;;19.54;53.10;99169.44;5093880;27;45443;-64
2023/06/16 02:24:31;;;;;;;;;23.00;20.75;;;;;19.54;52.96;99167.59;5086746;27;45435;-64
2023/06/16 02:26:56;;;;;;;;;22.25;21.25;;;;;19.51;53.35;99171.34;5093982;27;45443;-64
2023/06/16 02:29:22;;;;;;;;;17.50;17.00;;;;;19.49;52.90;99180.44;5083564;27;45410;-64
2023/06/16 02:31:48;;;;;;;;;22.75;22.50;;;;;19.47;53.64;99182.38;5093480;27;45322;-64
2023/06/16 02:34:14;;;;;;;;;21.75;19.50;;;;;19.43;53.73;99179.09;5092946;27;45443;-63
2023/06/16 02:36:40;;;;;;;;;19.00;18.75;;;;;19.42;53.47;99180.06;5085315;27;46369;-64
2023/06/16 02:39:06;;;;;;;;;18.25;17.75;;;;;19.38;53.19;99178.56;5086545;27;45536;-65
2023/06/16 02:41:33;;;;;;;;;17.25;17.25;;;;;19.36;52.93;99183.19;5089728;27;45436;-64
2023/06/16 02:43:59;;;;;;;;;19.25;18.25;;;;;19.34;53.19;99181.59;5087213;27;45666;-64
2023/06/16 02:46:25;;;;;;;;;21.00;20.50;;;;;19.35;52.86;99183.28;5085442;27;45412;-64
2023/06/16 02:48:50;;;;;;;;;19.25;18.25;;;;;19.35;53.41;99178.81;5070788;27;45487;-65
2023/06/16 02:51:15;;;;;;;;;20.50;18.00;;;;;19.35;53.17;99184.16;5094856;27;45394;-64
2023/06/16 02:53:41;;;;;;;;;18.00;17.50;;;;;19.34;53.72;99186.94;5091607;27;45648;-64
2023/06/16 02:56:07;;;;;;;;;27.25;22.00;;;;;19.29;54.11;99191.75;5076479;27;45487;-64
2023/06/16 02:58:32;;;;;;;;;20.50;19.50;;;;;19.23;54.76;99193.09;5092304;27;45446;-64
2023/06/16 03:00:58;;;;;;;;;19.25;18.25;;;;;19.15;54.33;99190.13;5089064;27;45444;-64
2023/06/16 03:03:25;;;;;;;;;20.25;17.75;;;;;19.09;54.62;99191.44;5103018;27;45325;-64
2023/06/16 03:05:50;;;;;;;;;21.25;19.75;;;;;19.06;54.61;99190.81;5091181;27;45543;-64
2023/06/16 03:08:16;;;;;;;;;21.75;18.50;;;;;19.03;54.31;99193.72;5092126;27;45474;-64
2023/06/16 03:10:42;;;;;;;;;18.00;18.00;;;;;19.01;54.42;99207.19;5092344;27;45555;-64
2023/06/16 03:13:07;;;;;;;;;16.75;16.75;;;;;18.99;53.53;99198.41;5090982;27;45350;-64
2023/06/16 03:15:32;;;;;;;;;22.25;18.50;;;;;18.99;54.25;99200.22;5090861;27;46134;-64
2023/06/16 03:17:58;;;;;;;;;22.00;19.50;;;;;19.00;54.82;99208.13;5073613;27;45396;-64
2023/06/16 03:20:23;;;;;;;;;22.75;20.25;;;;;18.98;54.39;99206.53;5087681;27;45519;-64
2023/06/16 03:22:49;;;;;;;;;23.25;21.00;;;;;18.96;54.93;99212.00;5093751;27;45299;-64
2023/06/16 03:25:15;;;;;;;;;23.25;21.50;;;;;18.94;54.74;99219.25;5088499;27;45492;-65
2023/06/16 03:27:41;;;;;;;;;23.00;21.25;;;;;18.91;55.26;99216.00;5093966;27;45409;-64
2023/06/16 03:30:08;;;;;;;;;21.00;19.50;;;;;18.88;55.08;99221.53;5086542;27;45420;-65
2023/06/16 03:32:34;;;;;;;;;17.75;17.75;;;;;18.84;55.44;99223.59;5093703;27;45400;-65
2023/06/16 03:35:02;;;;;;;;;21.25;21.00;;;;;18.80;55.61;99227.44;5071466;27;47206;-65
2023/06/16 03:37:27;;;;;;;;;22.75;19.25;;;;;18.79;56.25;99231.06;5091372;27;45496;-64
2023/06/16 03:39:53;;;;;;;;;22.25;20.75;;;;;18.78;56.22;99232.88;5086651;27;45539;-64
2023/06/16 03:42:18;;;;;;;;;23.50;22.75;;;;;18.79;56.39;99225.72;5093572;27;45554;-64
2023/06/16 03:44:43;;;;;;;;;23.00;23.00;;;;;18.75;56.45;99229.59;5081178;27;46566;-64
2023/06/16 03:47:09;;;;;;;;;19.25;19.25;;;;;18.75;56.45;99234.94;5086799;27;45468;-64
2023/06/16 03:49:34;;;;;;;;;20.25;19.50;;;;;18.74;55.89;99235.91;5072803;27;45510;-64
2023/06/16 03:52:00;;;;;;;;;23.75;19.50;;;;;18.73;55.80;99245.72;5093591;27;45509;-64
2023/06/16 03:54:26;;;;;;;;;17.75;17.00;;;;;18.68;56.23;99247.00;5089566;27;46570;-64
2023/06/16 03:56:52;;;;;;;;;12.50;12.50;;;;;18.67;56.19;99247.97;5074253;27;45393;-64
2023/06/16 03:59:18;;;;;;;;;27.00;22.75;;;;;18.64;56.85;99250.84;5088894;27;45452;-64
2023/06/16 04:01:46;;;;;;;;;18.75;18.75;;;;;18.60;56.03;99246.72;5081792;27;45539;-64
2023/06/16 04:04:12;;;;;;;;;20.25;20.25;;;;;18.56;56.88;99250.53;5066176;27;45614;-64
2023/06/16 04:06:40;;;;;;;;;22.50;20.25;;;;;18.54;56.91;99247.09;5086510;27;45502;-64
2023/06/16 04:09:05;;;;;;;;;27.25;25.00;;;;;18.54;57.31;99253.31;5087954;27;45373;-64
2023/06/16 04:11:31;;;;;;;;;19.25;19.25;;;;;18.55;56.91;99257.69;5091863;27;45407;-65
2023/06/16 04:13:57;;;;;;;;;20.75;20.50;;;;;18.56;57.09;99267.41;5087015;27;45541;-64
2023/06/16 04:16:22;;;;;;;;;24.00;23.50;;;;;18.57;57.13;99265.59;5085920;27;45388;-64
2023/06/16 04:18:48;;;;;;;;;21.25;20.25;;;;;18.60;57.80;99266.22;5094372;27;45439;-64
2023/06/16 04:21:17;;;;;;;;;16.00;15.50;;;;;18.66;57.71;99264.97;5093625;27;45545;-64
2023/06/16 04:23:42;;;;;;;;;21.25;20.75;;;;;18.69;58.10;99264.75;5091783;27;46367;-64
2023/06/16 04:26:08;;;;;;;;;23.00;22.25;;;;;18.73;57.98;99269.78;5096593;27;45519;-64
2023/06/16 04:28:38;;;;;;;;;21.00;21.00;;;;;18.78;57.55;99272.94;5076057;27;45409;-64
2023/06/16 04:31:05;;;;;;;;;24.00;23.25;;;;;18.82;57.34;99276.25;5091978;27;45409;-64
2023/06/16 04:33:30;;;;;;;;;23.00;22.50;;;;;18.83;57.83;99275.28;5094317;27;45550;-64
2023/06/16 04:35:55;;;;;;;;;24.00;21.00;;;;;18.85;57.72;99276.03;5093085;27;45407;-64
2023/06/16 04:38:23;;;;;;;;;25.50;25.50;;;;;18.88;57.15;99283.00;5094305;27;45546;-64
2023/06/16 04:40:49;;;;;;;;;21.00;20.50;;;;;18.85;57.63;99283.19;5093145;27;45479;-65
2023/06/16 04:43:15;;;;;;;;;27.25;25.00;;;;;18.76;58.11;99279.38;5093655;27;46291;-65
2023/06/16 04:45:40;;;;;;;;;23.25;21.50;;;;;18.70;57.83;99288.69;5066267;27;45425;-64
2023/06/16 04:48:05;;;;;;;;;25.25;24.50;;;;;18.65;58.25;99295.28;5093608;27;45543;-64
2023/06/16 04:50:31;;;;;;;;;24.75;23.75;;;;;18.63;57.98;99294.53;5089215;27;45464;-64
2023/06/16 04:52:57;;;;;;;;;24.50;21.50;;;;;18.64;58.42;99298.94;5094163;27;46062;-64
2023/06/16 04:55:22;;;;;;;;;22.75;20.25;;;;;18.64;58.51;99294.44;5091954;27;45385;-64
2023/06/16 04:57:47;;;;;;;;;19.00;19.00;;;;;18.68;58.29;99297.75;5095130;27;45609;-64
2023/06/16 05:00:13;;;;;;;;;27.75;22.75;;;;;18.70;58.51;99290.50;5083452;27;45624;-64
2023/06/16 05:02:40;;;;;;;;;24.25;22.00;;;;;18.74;57.60;99289.31;5096020;27;46072;-64
2023/06/16 05:05:06;;;;;;;;;22.25;21.25;;;;;18.76;57.31;99292.75;5090800;27;45483;-64
2023/06/16 05:07:31;;;;;;;;;22.25;20.50;;;;;18.81;57.33;99298.59;5096697;27;45557;-64
2023/06/16 05:09:57;;;;;;;;;23.00;22.00;;;;;18.87;58.21;99305.31;5087594;27;45450;-64
2023/06/16 05:12:25;;;;;;;;;22.50;22.00;;;;;18.92;57.49;99297.84;5089503;27;46166;-62
2023/06/16 05:14:51;;;;;;;;;24.00;23.75;;;;;19.00;57.52;99300.81;5099102;27;45498;-75
2023/06/16 05:17:16;;;;;;;;;21.75;21.75;;;;;19.10;57.14;99288.50;5083129;27;45380;-75
2023/06/16 05:19:42;;;;;;;;;26.50;23.25;;;;;19.17;56.60;99282.59;5093991;27;45471;-74
2023/06/16 05:22:07;;;;;;;;;21.00;20.75;;;;;19.25;57.05;99290.06;5095881;27;45460;-74
2023/06/16 05:24:33;;;;;;;;;24.25;23.25;;;;;19.35;56.93;99298.25;5087170;27;45306;-75
2023/06/16 05:26:58;;;;;;;;;31.25;24.75;;;;;19.43;57.40;99294.06;5089326;27;45364;-74
2023/06/16 05:29:24;;;;;;;;;28.50;26.75;;;;;19.51;57.56;99305.06;5088331;27;45440;-74
2023/06/16 05:31:50;;;;;;;;;20.50;20.50;;;;;19.60;56.83;99302.69;5091317;27;45357;-74
2023/06/16 05:34:15;;;;;;;;;31.33;28.00;;;;;19.68;56.39;99302.97;5092302;27;45491;-76
2023/06/16 05:36:41;;;;;;;;;30.67;28.67;;;;;19.75;56.97;99305.09;5086580;27;45331;-74
2023/06/16 05:39:07;;;;;;;;;25.00;25.00;;;;;19.79;56.47;99306.53;5086090;27;45515;-75
2023/06/16 05:41:33;;;;;;;;;24.25;21.25;;;;;19.83;55.87;99302.66;5094706;27;45467;-74
2023/06/16 05:43:59;;;;;;;;;30.50;29.00;;;;;19.86;55.82;99306.94;5092993;27;45411;-79
2023/06/16 05:46:24;;;;;;;;;29.00;27.67;;;;;19.86;56.17;99299.78;5077635;27;45507;-80
2023/06/16 05:48:50;;;;;;;;;26.25;23.50;;;;;19.89;56.60;99309.41;5072326;27;45946;-76
2023/06/16 05:51:15;;;;;;;;;26.00;23.25;;;;;19.92;56.45;99311.84;5087016;27;45531;-76
2023/06/16 05:53:41;;;;;;;;;24.00;23.00;;;;;19.95;56.69;99313.41;5090800;27;45420;-76
2023/06/16 05:56:07;;;;;;;;;25.75;25.50;;;;;19.96;56.42;99313.28;5080382;27;45351;-76
2023/06/16 05:58:35;;;;;;;;;26.00;26.00;;;;;19.96;56.38;99309.75;5092090;27;45325;-76
2023/06/16 06:01:06;;;;;;;;;30.00;28.00;;;;;19.98;55.84;99313.19;5091629;27;46647;-58
2023/06/16 06:03:31;;;;;;;;;31.50;27.50;;;;;20.01;56.52;99312.97;5089659;27;45373;-68
2023/06/16 06:05:57;;;;;;;;;31.00;28.67;;;;;20.06;56.18;99305.44;5092366;27;45490;-64
2023/06/16 06:08:27;;;;;;;;;28.00;24.75;;;;;20.07;56.69;99312.50;5090291;27;45483;-64
2023/06/16 06:10:52;;;;;;;;;34.00;32.33;;;;;20.10;56.24;99314.94;5072690;27;47760;-64
2023/06/16 06:13:18;;;;;;;;;26.67;26.00;;;;;20.10;56.09;99314.94;5092141;27;45620;-64
2023/06/16 06:15:43;;;;;;;;;24.25;24.25;;;;;20.11;55.69;99311.28;5084510;27;45511;-64
2023/06/16 06:18:08;;;;;;;;;28.00;28.00;;;;;20.18;55.07;99316.06;5072897;27;45601;-64
2023/06/16 06:20:34;;;;;;;;;25.75;25.75;;;;;20.21;54.78;99314.97;5085147;27;45682;-64
2023/06/16 06:22:59;;;;;;;;;25.00;23.25;;;;;20.25;54.60;99316.47;5081106;27;45514;-64
2023/06/16 06:25:25;;;;;;;;;30.67;28.33;;;;;20.29;54.73;99309.88;5080986;27;45411;-63
2023/06/16 06:27:50;;;;;;;;;24.00;24.00;;;;;20.32;54.58;99317.66;5091531;27;45766;-64
2023/06/16 06:30:16;;;;;;;;;25.75;24.50;;;;;20.34;54.33;99309.53;5077189;27;45493;-64
2023/06/16 06:32:41;;;;;;;;;25.25;25.25;;;;;20.40;54.36;99309.94;5087157;27;45396;-63
2023/06/16 06:35:07;;;;;;;;;27.75;27.50;;;;;20.48;54.86;99307.50;5079938;27;45355;-64
2023/06/16 06:37:32;;;;;;;;;28.75;25.00;;;;;20.55;54.12;99319.47;5087940;27;45462;-64
2023/06/16 06:39:58;;;;;;;;;24.50;24.25;;;;;20.63;54.40;99316.16;5090616;27;46750;-64
2023/06/16 06:42:23;;;;;;;;;25.25;24.75;;;;;20.70;53.73;99319.25;5079075;27;45330;-64
2023/06/16 06:44:49;;;;;;;;;26.25;24.50;;;;;20.77;54.08;99321.34;5086200;27;45834;-63
2023/06/16 06:47:14;;;;;;;;;23.75;23.75;;;;;20.85;53.54;99320.72;5085213;27;45432;-63
2023/06/16 06:49:44;;;;;;;;;27.25;26.50;;;;;20.92;53.56;99313.91;5089370;27;47113;-62
2023/06/16 06:52:09;;;;;;;;;27.25;27.25;;;;;20.98;53.70;99324.13;5080785;27;45642;-63
2023/06/16 06:54:35;;;;;;;;;29.75;29.75;;;;;21.02;53.90;99319.38;5064924;28;45726;-63
2023/06/16 06:57:00;;;;;;;;;28.00;26.50;;;;;21.06;53.64;99323.50;5090762;27;45411;-63
2023/06/16 06:59:25;;;;;;;;;32.25;30.25;;;;;21.12;53.92;99325.69;5083422;27;46425;-64
2023/06/16 07:01:51;;;;;;;;;24.00;23.25;;;;;21.18;53.63;99317.16;5087496;27;45451;-64
2023/06/16 07:04:16;;;;;;;;;25.50;23.75;;;;;21.26;53.14;99320.13;5087799;27;45437;-63
2023/06/16 07:06:42;;;;;;;;;31.75;28.75;;;;;21.31;52.82;99319.72;5092238;27;45547;-63
2023/06/16 07:09:07;;;;;;;;;29.50;26.50;;;;;21.34;53.26;99325.69;5090104;27;45440;-63
2023/06/16 07:11:33;;;;;;;;;25.75;24.50;;;;;21.38;52.60;99320.94;5091998;27;45501;-63
2023/06/16 07:13:58;;;;;;;;;31.00;30.00;;;;;21.42;52.94;99317.91;5086293;27;45354;-63
2023/06/16 07:16:23;;;;;;;;;27.50;27.50;;;;;21.47;52.83;99321.03;5086170;27;45381;-64
2023/06/16 07:18:50;;;;;;;;;30.75;29.25;;;;;21.51;52.59;99324.31;5066320;28;45529;-63
2023/06/16 07:21:16;;;;;;;;;25.50;24.75;;;;;21.53;52.35;99325.91;5091437;27;45482;-63
2023/06/16 07:23:41;;;;;;;;;26.25;26.00;;;;;21.56;52.26;99327.50;5084430;27;45718;-63
2023/06/16 07:26:07;;;;;;;;;25.25;24.25;;;;;21.57;52.53;99324.69;5091628;27;45351;-63
2023/06/16 07:28:32;;;;;;;;;30.00;28.00;;;;;21.60;52.07;99326.28;5088188;27;45506;-63
2023/06/16 07:30:57;;;;;;;;;27.00;24.50;;;;;21.60;52.07;99318.22;5091959;27;45697;-63
2023/06/16 07:33:23;;;;;;;;;25.25;24.25;;;;;21.61;52.31;99314.56;5089726;27;45730;-63
2023/06/16 07:35:48;;;;;;;;;25.50;25.50;;;;;21.62;51.71;99318.09;5086783;27;45661;-63
2023/06/16 07:38:14;;;;;;;;;26.25;25.25;;;;;21.59;51.31;99308.47;5090239;27;46462;-63
2023/06/16 07:40:41;;;;;;;;;27.25;26.50;;;;;21.60;51.14;99310.19;5067651;27;45893;-63
2023/06/16 07:43:07;;;;;;;;;25.25;23.25;;;;;21.62;51.42;99304.69;5090617;27;45424;-63
2023/06/16 07:45:33;;;;;;;;;27.25;24.75;;;;;21.65;51.38;99304.41;5079700;27;45416;-64
2023/06/16 07:47:59;;;;;;;;;25.25;24.00;;;;;21.72;51.68;99303.78;5090429;27;46662;-63
2023/06/16 07:50:25;;;;;;;;;23.75;23.75;;;;;21.80;50.63;99303.13;5101760;27;45846;-63
2023/06/16 07:52:51;;;;;;;;;21.50;21.00;;;;;21.80;49.43;99308.50;5093697;27;45459;-63
2023/06/16 07:55:16;;;;;;;;;24.50;23.00;;;;;21.81;49.15;99299.47;5090864;27;45486;-63
2023/06/16 07:57:42;;;;;;;;;21.75;21.50;;;;;21.86;49.72;99308.84;5094467;27;46100;-63
2023/06/16 08:00:12;;;;;;;;;25.75;23.75;;;;;21.93;50.05;99296.63;5082541;27;45477;-63
2023/06/16 08:02:39;;;;;;;;;23.50;22.25;;;;;21.98;50.54;99292.69;5090676;27;45333;-63
2023/06/16 08:05:06;;;;;;;;;24.00;24.00;;;;;22.02;50.31;99297.72;5091797;27;45383;-63
2023/06/16 08:07:31;;;;;;;;;25.00;23.50;;;;;22.08;50.81;99296.34;5073808;27;47549;-63
2023/06/16 08:09:56;;;;;;;;;26.50;26.50;;;;;22.12;50.66;99295.94;5079081;27;45976;-63
2023/06/16 08:12:22;;;;;;;;;30.25;24.75;;;;;22.16;49.95;99291.16;5093876;27;45420;-63
2023/06/16 08:14:47;;;;;;;;;26.50;24.50;;;;;22.19;50.00;99286.38;5089108;27;45403;-63
2023/06/16 08:17:13;;;;;;;;;24.75;21.75;;;;;22.22;50.37;99283.44;5095387;27;45592;-63
2023/06/16 08:19:38;;;;;;;;;25.75;25.25;;;;;22.27;50.80;99288.44;5087379;27;45579;-63
2023/06/16 08:22:04;;;;;;;;;26.00;25.00;;;;;22.33;50.54;99289.72;5095429;27;45485;-63
2023/06/16 08:24:30;;;;;;;;;23.75;23.75;;;;;22.39;49.75;99290.06;5083076;27;45596;-64
2023/06/16 08:26:56;;;;;;;;;25.75;25.25;;;;;22.46;49.56;99291.22;5089418;27;46411;-63
2023/06/16 08:29:21;;;;;;;;;24.50;23.75;;;;;22.54;49.88;99274.44;5088626;27;45464;-63
2023/06/16 08:31:46;;;;;;;;;22.00;22.00;;;;;22.62;50.05;99272.78;5094776;27;46365;-64
2023/06/16 08:34:12;;;;;;;;;24.00;24.00;;;;;22.68;49.46;99266.03;5084830;27;45459;-63
2023/06/16 08:36:37;;;;;;;;;25.50;22.75;;;;;22.71;49.26;99265.75;5093448;27;45367;-63
2023/06/16 08:39:05;;;;;;;;;22.00;21.00;;;;;22.73;48.30;99265.63;5084367;27;45442;-63
2023/06/16 08:41:33;;;;;;;;;19.50;19.00;;;;;22.72;47.72;99266.63;5093980;27;45518;-63
2023/06/16 08:44:02;;;;;;;;;21.50;21.00;;;;;22.68;48.20;99263.34;5088961;27;45472;-64
2023/06/16 08:46:27;;;;;;;;;24.50;23.50;;;;;22.68;48.01;99260.66;5085245;27;46845;-63
2023/06/16 08:48:53;;;;;;;;;26.00;23.50;;;;;22.68;48.04;99257.09;5089603;27;45365;-63
2023/06/16 08:51:23;;;;;;;;;23.00;21.25;;;;;22.69;48.33;99261.50;5088690;27;45564;-62
2023/06/16 08:53:54;;;;;;;;;24.75;22.75;;;;;22.71;47.95;99260.38;5090399;27;45373;-63
2023/06/16 08:56:20;;;;;;;;;25.75;25.75;;;;;22.78;48.12;99258.06;5090465;27;45461;-63
2023/06/16 08:58:47;;;;;;;;;23.25;22.75;;;;;22.87;47.87;99254.53;5073167;27;45479;-62
2023/06/16 09:01:14;;;;;;;;;23.50;21.75;;;;;22.95;47.99;99257.41;5089077;27;45399;-62
2023/06/16 09:03:41;;;;;;;;;21.25;20.25;;;;;23.04;47.97;99248.50;5090788;27;45635;-63
2023/06/16 09:06:10;;;;;;;;;24.50;23.75;;;;;23.12;47.48;99239.78;5075769;27;46558;-63
2023/06/16 09:08:36;;;;;;;;;25.25;22.75;;;;;23.23;47.92;99250.41;5091942;27;45444;-64
2023/06/16 09:11:07;;;;;;;;;26.25;23.00;;;;;23.34;47.17;99250.28;5093664;27;45619;-64
2023/06/16 09:13:33;;;;;;;;;23.00;21.75;;;;;23.41;46.92;99251.44;5074326;27;45616;-65
2023/06/16 09:15:59;;;;;;;;;21.50;21.25;;;;;23.50;47.14;99255.97;5070506;27;47457;-63
2023/06/16 09:18:45;;;;;;;;;25.00;25.00;;;;;23.60;46.87;99250.63;5076098;27;45511;-64
2023/06/16 09:21:11;;;;;;;;;23.25;22.00;;;;;23.70;46.68;99253.31;5094820;27;45281;-64
2023/06/16 09:23:38;;;;;;;;;25.75;24.25;;;;;23.78;46.50;99246.25;5095174;27;45554;-64
2023/06/16 09:26:15;;;;;;;;;22.00;21.00;;;;;23.90;46.52;99245.09;5094844;27;45715;-64
2023/06/16 09:28:40;;;;;;;;;24.75;23.25;;;;;24.00;46.47;99242.38;5081787;27;45417;-64
2023/06/16 09:31:08;;;;;;;;;21.75;17.75;;;;;24.09;46.01;99236.16;5092879;27;45554;-64
2023/06/16 09:33:34;;;;;;;;;25.00;23.75;;;;;24.18;46.35;99234.44;5095649;27;45510;-64
2023/06/16 09:36:00;;;;;;;;;22.25;22.25;;;;;24.26;45.41;99226.50;5079250;27;45393;-64
2023/06/16 09:38:31;;;;;;;;;21.25;19.00;;;;;24.34;46.17;99227.47;5076316;27;45763;-63
2023/06/16 09:41:07;;;;;;;;;21.75;20.75;;;;;24.41;45.63;99226.91;5092392;27;45450;-63
2023/06/16 09:43:32;;;;;;;;;20.25;20.25;;;;;24.39;45.56;99224.34;5087193;27;45633;-63
2023/06/16 09:45:58;;;;;;;;;22.50;21.25;;;;;24.41;45.60;99219.66;5083363;27;46185;-63
2023/06/16 09:48:25;;;;;;;;;21.75;21.75;;;;;24.48;45.87;99215.38;5086831;27;45420;-63
2023/06/16 09:50:53;;;;;;;;;25.50;25.25;;;;;24.56;45.54;99214.63;5087979;27;45380;-63
2023/06/16 09:53:22;;;;;;;;;21.00;20.50;;;;;24.62;45.50;99212.22;5085197;27;45495;-64
2023/06/16 09:55:49;;;;;;;;;23.50;22.25;;;;;24.65;44.84;99216.44;5093960;27;46613;-64
2023/06/16 09:58:15;;;;;;;;;22.50;21.00;;;;;24.69;45.19;99199.81;5104982;27;45475;-64
2023/06/16 10:00:40;;;;;;;;;21.25;20.00;;;;;24.74;45.63;99203.94;5074845;27;45321;-64
2023/06/16 10:03:08;;;;;;;;;22.00;21.00;;;;;24.80;44.88;99208.72;5071778;28;45438;-64
2023/06/16 10:05:35;;;;;;;;;22.00;22.00;;;;;24.85;44.15;99198.31;5086655;27;45457;-64
2023/06/16 10:08:04;;;;;;;;;26.75;24.75;;;;;24.88;44.62;99195.34;5072771;27;45448;-64
2023/06/16 10:10:32;;;;;;;;;23.75;23.75;;;;;24.92;44.60;99202.97;5087925;27;45392;-64
2023/06/16 10:13:03;;;;;;;;;23.00;22.00;;;;;24.97;44.52;99202.53;5080725;27;45478;-64
2023/06/16 10:15:33;;;;;;;;;25.50;23.00;;;;;25.04;44.63;99193.72;5077371;27;46587;-64
2023/06/16 10:18:03;;;;;;;;;22.00;19.75;;;;;25.10;44.38;99200.34;5091130;27;45586;-64
2023/06/16 10:20:32;;;;;;;;;24.50;22.75;;;;;25.15;44.56;99210.66;5093460;27;45391;-63
2023/06/16 10:23:00;;;;;;;;;20.25;18.75;;;;;25.17;44.65;99204.13;5093269;27;45565;-64
2023/06/16 10:25:25;;;;;;;;;19.75;18.50;;;;;25.19;44.41;99187.78;5093413;27;45709;-63
2023/06/16 10:27:52;;;;;;;;;20.25;19.00;;;;;25.23;44.70;99190.03;5062979;28;45853;-64
2023/06/16 10:30:19;;;;;;;;;25.00;22.25;;;;;25.27;44.72;99199.53;5098313;27;45403;-64
2023/06/16 10:32:48;;;;;;;;;26.00;25.75;;;;;25.32;43.74;99182.84;5075669;27;45358;-65
2023/06/16 10:35:17;;;;;;;;;18.50;18.00;;;;;25.33;44.64;99184.56;5072319;27;48204;-64
2023/06/16 10:37:42;;;;;;;;;18.00;18.00;;;;;25.35;44.75;99187.94;5083844;27;45521;-64
2023/06/16 10:40:12;;;;;;;;;24.00;22.50;;;;;25.42;44.27;99182.81;5072092;28;45629;-64
2023/06/16 10:42:39;;;;;;;;;21.25;21.25;;;;;25.48;44.45;99177.63;5062552;28;45422;-64
2023/06/16 10:45:25;;;;;;;;;23.75;22.75;;;;;25.53;44.75;99172.59;5090469;27;45541;-64
2023/06/16 10:47:55;;;;;;;;;21.25;21.25;;;;;25.62;44.48;99165.47;5092119;27;45505;-64
2023/06/16 10:50:48;;;;;;;;;23.00;22.00;;;;;25.72;43.99;99177.03;5084508;27;45357;-64
2023/06/16 10:53:20;;;;;;;;;24.75;23.25;;;;;25.83;42.80;99168.66;5093278;27;45683;-64
2023/06/16 10:55:46;;;;;;;;;23.50;21.75;;;;;25.89;42.77;99183.41;5091449;27;45468;-64
2023/06/16 10:58:15;;;;;;;;;23.50;22.25;;;;;25.95;42.76;99158.47;5092828;27;45553;-64
2023/06/16 11:01:04;;;;;;;;;19.00;19.00;;;;;25.99;43.09;99165.22;5074867;27;45388;-65
2023/06/16 11:03:34;;;;;;;;;22.75;21.25;;;;;26.08;42.67;99165.16;5092644;27;45518;-66
2023/06/16 11:06:00;;;;;;;;;24.75;23.25;;;;;26.11;41.70;99155.88;5092689;27;46170;-66
2023/06/16 11:08:28;;;;;;;;;20.80;20.80;;;;;26.13;42.19;99161.97;5093776;27;45467;-66
2023/06/16 11:11:01;;;;;;;;;16.50;15.25;;;;;26.20;41.98;99170.28;5073229;27;45473;-66
2023/06/16 11:13:30;;;;;;;;;16.75;16.50;;;;;26.24;41.69;99167.09;5093668;27;45328;-66
2023/06/16 11:15:56;;;;;;;;;21.25;20.75;;;;;26.27;42.05;99163.22;5089867;27;45470;-67
2023/06/16 11:18:29;;;;;;;;;21.50;21.25;;;;;26.30;41.17;99152.13;5092506;27;45387;-66